createdAt,value
2019-01-09T00:01:10.244Z,23.99
2019-01-09T00:03:39.943Z,23.98
2019-01-09T00:06:09.546Z,23.98
2019-01-09T00:08:39.143Z,24.01
2019-01-09T00:11:08.878Z,24.03
2019-01-09T00:13:38.675Z,24.04
2019-01-09T00:16:08.289Z,24.00
2019-01-09T00:18:37.751Z,24.03
2019-01-09T00:21:07.424Z,24.03
2019-01-09T00:23:37.120Z,23.97
2019-01-09T00:26:06.822Z,23.97
2019-01-09T00:28:36.533Z,23.95
2019-01-09T00:31:06.157Z,23.95
2019-01-09T00:33:35.741Z,23.94
2019-01-09T00:36:05.290Z,23.95
2019-01-09T00:38:34.962Z,23.93
2019-01-09T00:41:04.571Z,23.94
2019-01-09T00:43:34.278Z,23.93
2019-01-09T00:46:03.922Z,23.95
2019-01-09T00:48:33.602Z,23.94
2019-01-09T00:51:03.110Z,23.96
2019-01-09T00:53:32.824Z,23.95
2019-01-09T00:56:02.431Z,23.93
2019-01-09T00:58:31.969Z,23.90
2019-01-09T01:01:01.658Z,23.92
2019-01-09T01:04:39.969Z,23.89
2019-01-09T01:07:54.546Z,23.95
2019-01-09T01:11:07.968Z,23.91
2019-01-09T01:14:09.728Z,23.92
2019-01-09T01:17:15.068Z,23.90
2019-01-09T01:20:09.736Z,23.90
2019-01-09T01:23:22.171Z,23.90
2019-01-09T01:26:32.530Z,23.93
2019-01-09T01:29:42.495Z,23.97
2019-01-09T01:32:41.452Z,23.96
2019-01-09T01:36:09.986Z,23.89
2019-01-09T01:39:04.730Z,23.86
2019-01-09T01:41:47.922Z,23.90
2019-01-09T01:44:52.796Z,23.91
2019-01-09T01:48:01.473Z,23.92
2019-01-09T01:51:29.904Z,23.91
2019-01-09T01:54:07.246Z,23.91
2019-01-09T01:57:42.085Z,23.90
2019-01-09T02:00:48.871Z,23.86
2019-01-09T02:03:56.438Z,23.87
2019-01-09T02:07:02.638Z,23.89
2019-01-09T02:10:15.508Z,23.88
2019-01-09T02:13:31.760Z,23.87
2019-01-09T02:16:28.050Z,23.82
2019-01-09T02:19:25.283Z,23.85
2019-01-09T02:22:29.815Z,23.85
2019-01-09T02:25:25.183Z,23.85
2019-01-09T02:28:36.129Z,23.85
2019-01-09T02:31:51.046Z,23.78
2019-01-09T02:34:20.627Z,23.76
2019-01-09T02:36:50.138Z,23.84
2019-01-09T02:39:19.855Z,23.79
2019-01-09T02:41:49.474Z,23.81
2019-01-09T02:44:19.080Z,23.84
2019-01-09T02:46:48.747Z,23.89
2019-01-09T02:49:18.298Z,23.84
2019-01-09T02:51:47.907Z,23.85
2019-01-09T02:54:17.673Z,23.81
2019-01-09T02:56:47.336Z,23.82
2019-01-09T02:59:17.134Z,23.82
2019-01-09T03:01:46.877Z,23.84
2019-01-09T03:04:16.454Z,23.84
2019-01-09T03:06:46.067Z,23.87
2019-01-09T03:09:15.830Z,23.85
2019-01-09T03:11:45.423Z,23.89
2019-01-09T03:14:15.092Z,23.84
2019-01-09T03:16:44.665Z,23.86
2019-01-09T03:19:14.323Z,23.85
2019-01-09T03:21:43.964Z,23.86
2019-01-09T03:24:13.643Z,23.83
2019-01-09T03:26:43.419Z,23.87
2019-01-09T03:29:12.236Z,23.87
2019-01-09T03:31:41.799Z,23.87
2019-01-09T03:34:11.474Z,23.86
2019-01-09T03:36:41.096Z,23.87
2019-01-09T03:39:10.683Z,23.85
2019-01-09T03:41:40.383Z,23.86
2019-01-09T03:44:09.934Z,23.86
2019-01-09T03:46:39.607Z,23.87
2019-01-09T03:49:09.216Z,23.84
2019-01-09T03:51:38.929Z,23.88
2019-01-09T03:54:08.668Z,23.84
2019-01-09T03:56:38.338Z,23.86
2019-01-09T03:59:08.090Z,23.89
2019-01-09T04:01:37.624Z,23.84
2019-01-09T04:04:07.379Z,23.85
2019-01-09T04:06:41.846Z,23.84
2019-01-09T04:09:08.328Z,23.87
2019-01-09T04:11:38.013Z,23.87
2019-01-09T04:14:07.581Z,23.83
2019-01-09T04:16:37.260Z,23.91
2019-01-09T04:19:06.833Z,23.86
2019-01-09T04:21:36.578Z,23.87
2019-01-09T04:24:06.313Z,23.91
2019-01-09T04:26:35.894Z,23.91
2019-01-09T04:29:05.622Z,23.85
2019-01-09T04:31:35.327Z,23.84
2019-01-09T04:34:04.832Z,23.88
2019-01-09T04:36:34.636Z,23.86
2019-01-09T04:39:05.305Z,23.86
2019-01-09T04:41:34.838Z,23.86
2019-01-09T04:44:04.601Z,23.86
2019-01-09T04:46:34.216Z,23.79
2019-01-09T04:49:03.803Z,23.84
2019-01-09T04:51:33.407Z,23.86
2019-01-09T04:54:03.138Z,23.88
2019-01-09T04:56:32.835Z,23.87
2019-01-09T04:59:02.404Z,23.86
2019-01-09T05:01:32.162Z,23.83
2019-01-09T05:04:01.682Z,23.85
2019-01-09T05:06:31.365Z,23.84
2019-01-09T05:09:01.096Z,23.83
2019-01-09T05:11:30.795Z,23.81
2019-01-09T05:14:00.401Z,23.82
2019-01-09T05:16:30.008Z,23.84
2019-01-09T05:18:59.730Z,23.83
2019-01-09T05:21:29.289Z,23.79
2019-01-09T05:23:58.950Z,23.84
2019-01-09T05:26:28.658Z,23.82
2019-01-09T05:28:58.212Z,23.85
2019-01-09T05:31:27.836Z,23.82
2019-01-09T05:33:57.427Z,23.81
2019-01-09T05:36:27.097Z,23.83
2019-01-09T05:38:56.690Z,23.84
2019-01-09T05:41:26.296Z,23.86
2019-01-09T05:43:55.907Z,23.79
2019-01-09T05:46:25.523Z,23.82
2019-01-09T05:48:55.234Z,23.61
2019-01-09T05:51:24.944Z,23.58
2019-01-09T05:53:54.545Z,23.70
2019-01-09T05:56:24.161Z,23.81
2019-01-09T05:58:53.744Z,23.76
2019-01-09T06:01:23.238Z,23.79
2019-01-09T06:03:53.077Z,23.86
2019-01-09T06:06:22.756Z,23.89
2019-01-09T06:08:52.263Z,23.84
2019-01-09T06:11:21.918Z,23.84
2019-01-09T06:13:52.412Z,23.91
2019-01-09T06:16:21.914Z,24.00
2019-01-09T06:18:51.548Z,23.99
2019-01-09T06:21:21.136Z,23.87
2019-01-09T06:23:50.682Z,23.91
2019-01-09T06:26:20.278Z,23.97
2019-01-09T06:28:49.954Z,24.00
2019-01-09T06:31:19.598Z,23.93
2019-01-09T06:33:49.197Z,23.97
2019-01-09T06:36:18.909Z,23.81
2019-01-09T06:38:48.524Z,23.81
2019-01-09T06:41:18.128Z,23.87
2019-01-09T06:43:47.674Z,23.95
2019-01-09T06:46:17.273Z,23.95
2019-01-09T06:48:46.855Z,23.99
2019-01-09T06:51:16.490Z,24.01
2019-01-09T06:53:46.255Z,24.02
2019-01-09T06:56:16.127Z,23.97
2019-01-09T06:58:45.698Z,23.97
2019-01-09T07:01:15.404Z,23.98
2019-01-09T07:03:45.041Z,23.99
2019-01-09T07:06:14.628Z,23.98
2019-01-09T07:08:44.333Z,24.00
2019-01-09T07:11:14.019Z,24.02
2019-01-09T07:13:44.597Z,24.07
2019-01-09T07:16:14.290Z,24.06
2019-01-09T07:18:45.436Z,24.06
2019-01-09T07:21:15.040Z,24.05
2019-01-09T07:23:44.539Z,24.04
2019-01-09T07:26:13.949Z,24.09
2019-01-09T07:28:43.523Z,23.91
2019-01-09T07:31:13.125Z,24.06
2019-01-09T07:33:42.864Z,24.03
2019-01-09T07:36:12.475Z,24.03
2019-01-09T07:38:42.096Z,24.03
2019-01-09T07:41:11.620Z,24.03
2019-01-09T07:43:41.179Z,24.08
2019-01-09T07:46:10.844Z,23.92
2019-01-09T07:48:40.403Z,23.98
2019-01-09T07:51:09.948Z,24.04
2019-01-09T07:53:39.533Z,24.08
2019-01-09T07:56:09.136Z,24.08
2019-01-09T07:58:38.648Z,24.03
2019-01-09T08:01:08.279Z,24.05
2019-01-09T08:03:37.872Z,24.09
2019-01-09T08:06:07.623Z,24.08
2019-01-09T08:08:37.146Z,24.12
2019-01-09T08:11:06.658Z,24.08
2019-01-09T08:13:36.295Z,24.10
2019-01-09T08:16:05.998Z,24.10
2019-01-09T08:18:35.532Z,24.08
2019-01-09T08:21:05.807Z,24.06
2019-01-09T08:23:35.667Z,24.10
2019-01-09T08:26:05.244Z,24.07
2019-01-09T08:28:34.772Z,24.10
2019-01-09T08:31:04.282Z,24.09
2019-01-09T08:33:33.861Z,24.10
2019-01-09T08:36:03.511Z,24.10
2019-01-09T08:38:33.001Z,24.11
2019-01-09T08:41:02.623Z,24.10
2019-01-09T08:43:32.318Z,24.13
2019-01-09T08:46:01.938Z,24.11
2019-01-09T08:48:31.536Z,24.10
2019-01-09T08:51:01.159Z,24.08
2019-01-09T08:53:30.625Z,24.11
2019-01-09T08:56:00.159Z,24.13
2019-01-09T08:58:29.753Z,24.10
2019-01-09T09:00:59.267Z,24.07
2019-01-09T09:03:28.890Z,24.12
2019-01-09T09:05:58.449Z,24.10
2019-01-09T09:08:28.001Z,24.05
2019-01-09T09:10:57.610Z,24.04
2019-01-09T09:13:38.048Z,24.08
2019-01-09T09:16:11.567Z,23.86
2019-01-09T09:18:41.489Z,23.97
2019-01-09T09:21:11.058Z,23.99
2019-01-09T09:23:40.607Z,24.01
2019-01-09T09:26:10.095Z,23.98
2019-01-09T09:28:39.695Z,24.03
2019-01-09T09:31:09.321Z,24.01
2019-01-09T09:33:38.854Z,24.01
2019-01-09T09:36:08.453Z,23.97
2019-01-09T09:38:38.067Z,23.97
2019-01-09T09:41:07.751Z,23.92
2019-01-09T09:43:37.294Z,23.95
2019-01-09T09:46:06.968Z,23.91
2019-01-09T09:48:36.692Z,23.98
2019-01-09T09:51:06.394Z,23.93
2019-01-09T09:53:36.008Z,23.99
2019-01-09T09:56:05.621Z,23.97
2019-01-09T09:58:35.330Z,23.97
2019-01-09T10:01:04.971Z,23.96
2019-01-09T10:03:34.548Z,23.98
2019-01-09T10:06:04.091Z,23.99
2019-01-09T10:08:33.656Z,23.86
2019-01-09T10:11:03.260Z,23.92
2019-01-09T10:13:32.948Z,23.95
2019-01-09T10:16:02.576Z,23.90
2019-01-09T10:18:32.193Z,23.95
2019-01-09T10:21:01.664Z,24.00
2019-01-09T10:23:31.430Z,24.01
2019-01-09T10:26:01.005Z,24.04
2019-01-09T10:28:30.491Z,24.05
2019-01-09T10:31:00.031Z,24.00
2019-01-09T10:33:29.713Z,23.90
2019-01-09T10:35:59.311Z,24.00
2019-01-09T10:38:28.881Z,24.04
2019-01-09T10:40:58.471Z,24.06
2019-01-09T10:43:28.164Z,24.07
2019-01-09T10:45:57.779Z,24.08
2019-01-09T10:48:27.494Z,24.10
2019-01-09T10:50:57.093Z,24.04
2019-01-09T10:53:26.708Z,24.10
2019-01-09T10:55:56.308Z,24.13
2019-01-09T10:58:25.892Z,24.12
2019-01-09T11:00:56.023Z,24.13
2019-01-09T11:03:25.781Z,24.12
2019-01-09T11:05:55.366Z,24.09
2019-01-09T11:08:24.843Z,24.08
2019-01-09T11:10:54.458Z,24.00
2019-01-09T11:13:24.092Z,24.03
2019-01-09T11:15:53.839Z,23.99
2019-01-09T11:18:23.754Z,24.02
2019-01-09T11:20:53.275Z,24.10
2019-01-09T11:23:22.891Z,24.11
2019-01-09T11:25:52.432Z,24.14
2019-01-09T11:28:22.012Z,24.15
2019-01-09T11:30:51.648Z,24.10
2019-01-09T11:33:21.271Z,24.12
2019-01-09T11:35:50.826Z,24.13
2019-01-09T11:38:20.381Z,24.14
2019-01-09T11:40:49.981Z,24.16
2019-01-09T11:43:19.575Z,24.14
2019-01-09T11:45:49.096Z,24.17
2019-01-09T11:48:18.913Z,24.17
2019-01-09T11:50:48.693Z,24.15
2019-01-09T11:53:18.248Z,24.13
2019-01-09T11:55:47.737Z,24.12
2019-01-09T11:58:17.647Z,24.12
2019-01-09T12:00:47.362Z,24.05
2019-01-09T12:03:16.875Z,24.11
2019-01-09T12:05:46.424Z,24.11
2019-01-09T12:08:16.018Z,24.05
2019-01-09T12:10:45.631Z,24.09
2019-01-09T12:13:15.103Z,24.09
2019-01-09T12:15:44.562Z,24.11
2019-01-09T12:18:14.113Z,24.05
2019-01-09T12:20:43.717Z,24.09
2019-01-09T12:23:13.311Z,24.10
2019-01-09T12:25:42.807Z,24.04
2019-01-09T12:28:12.540Z,24.10
2019-01-09T12:30:42.235Z,24.08
2019-01-09T12:33:11.758Z,24.04
2019-01-09T12:35:41.352Z,24.04
2019-01-09T12:38:10.977Z,24.09
2019-01-09T12:40:40.599Z,24.09
2019-01-09T12:43:10.090Z,23.92
2019-01-09T12:45:39.588Z,24.04
2019-01-09T12:48:09.209Z,24.08
2019-01-09T12:50:38.814Z,24.04
2019-01-09T12:53:08.405Z,23.99
2019-01-09T12:55:37.949Z,23.92
2019-01-09T12:58:07.544Z,23.96
2019-01-09T13:00:37.026Z,23.95
2019-01-09T13:03:06.660Z,23.99
2019-01-09T13:05:36.409Z,24.00
2019-01-09T13:08:05.940Z,23.99
2019-01-09T13:10:35.513Z,24.03
2019-01-09T13:13:05.097Z,24.00
2019-01-09T13:15:34.941Z,23.97
2019-01-09T13:18:05.405Z,24.04
2019-01-09T13:20:35.063Z,24.09
2019-01-09T13:23:04.742Z,24.03
2019-01-09T13:25:34.466Z,24.05
2019-01-09T13:28:04.178Z,24.08
2019-01-09T13:30:33.756Z,24.06
2019-01-09T13:33:03.493Z,24.10
2019-01-09T13:35:33.230Z,24.04
2019-01-09T13:38:02.817Z,24.10
2019-01-09T13:40:34.294Z,24.02
2019-01-09T13:43:03.631Z,24.03
2019-01-09T13:45:33.284Z,23.99
2019-01-09T13:48:02.885Z,23.97
2019-01-09T13:50:32.649Z,24.01
2019-01-09T13:53:02.242Z,24.09
2019-01-09T13:55:32.580Z,24.15
2019-01-09T13:58:02.120Z,24.15
2019-01-09T14:00:31.718Z,24.19
2019-01-09T14:03:01.676Z,24.17
2019-01-09T14:05:31.604Z,24.18
2019-01-09T14:08:01.224Z,24.10
2019-01-09T14:10:30.970Z,24.16
2019-01-09T14:13:00.556Z,24.13
2019-01-09T14:15:30.153Z,24.14
2019-01-09T14:17:59.745Z,24.14
2019-01-09T14:20:29.493Z,24.11
2019-01-09T14:22:59.162Z,24.06
2019-01-09T14:25:28.880Z,24.12
2019-01-09T14:27:58.621Z,24.10
2019-01-09T14:30:29.421Z,24.11
2019-01-09T14:32:59.122Z,24.10
2019-01-09T14:35:28.852Z,24.11
2019-01-09T14:37:58.648Z,24.13
2019-01-09T14:40:28.392Z,24.13
2019-01-09T14:42:58.073Z,24.11
2019-01-09T14:45:27.882Z,24.16
2019-01-09T14:47:57.596Z,24.16
2019-01-09T14:50:27.321Z,24.16
2019-01-09T14:52:56.949Z,24.11
2019-01-09T14:55:26.642Z,24.11
2019-01-09T14:57:56.252Z,24.11
2019-01-09T15:00:27.573Z,24.15
2019-01-09T15:02:57.224Z,24.09
2019-01-09T15:05:26.918Z,24.11
2019-01-09T15:07:56.614Z,24.10
2019-01-09T15:10:28.359Z,24.09
2019-01-09T15:12:58.115Z,24.06
2019-01-09T15:15:27.797Z,24.07
2019-01-09T15:17:57.562Z,24.12
2019-01-09T15:20:27.342Z,24.09
2019-01-09T15:22:56.958Z,24.09
2019-01-09T15:25:26.644Z,24.05
2019-01-09T15:27:56.343Z,24.04
2019-01-09T15:30:30.712Z,24.05
2019-01-09T15:33:00.384Z,24.06
2019-01-09T15:35:30.028Z,24.08
2019-01-09T15:37:59.798Z,24.08
2019-01-09T15:40:30.742Z,24.07
2019-01-09T15:43:00.369Z,23.97
2019-01-09T15:45:30.093Z,23.98
2019-01-09T15:47:59.762Z,23.99
2019-01-09T15:50:29.722Z,24.04
2019-01-09T15:52:59.478Z,24.10
2019-01-09T15:55:29.080Z,24.06
2019-01-09T15:57:58.716Z,24.05
2019-01-09T16:00:31.040Z,24.03
2019-01-09T16:03:00.853Z,24.07
2019-01-09T16:05:30.502Z,24.04
2019-01-09T16:08:00.142Z,23.98
2019-01-09T16:10:29.831Z,23.93
2019-01-09T16:12:59.540Z,23.97
2019-01-09T16:15:29.163Z,23.92
2019-01-09T16:17:58.694Z,23.96
2019-01-09T16:20:28.308Z,23.89
2019-01-09T16:22:58.096Z,23.84
2019-01-09T16:25:27.585Z,23.89
2019-01-09T16:27:57.300Z,23.86
2019-01-09T16:30:46.886Z,23.89
2019-01-09T16:33:16.497Z,23.88
2019-01-09T16:35:46.184Z,23.85
2019-01-09T16:38:15.919Z,23.83
2019-01-09T16:40:45.626Z,23.71
2019-01-09T16:43:15.229Z,23.75
2019-01-09T16:45:44.930Z,23.77
2019-01-09T16:48:14.658Z,23.77
2019-01-09T16:50:44.267Z,23.81
2019-01-09T16:53:14.186Z,23.82
2019-01-09T16:55:43.910Z,23.89
2019-01-09T16:58:13.596Z,23.90
2019-01-09T17:00:43.238Z,23.83
2019-01-09T17:03:12.892Z,23.88
2019-01-09T17:05:42.625Z,23.87
2019-01-09T17:08:12.263Z,23.87
2019-01-09T17:10:43.041Z,23.91
2019-01-09T17:13:12.795Z,23.92
2019-01-09T17:15:42.496Z,23.92
2019-01-09T17:18:12.269Z,23.90
2019-01-09T17:20:41.909Z,23.87
2019-01-09T17:23:11.652Z,23.88
2019-01-09T17:25:41.325Z,23.88
2019-01-09T17:28:11.190Z,23.79
2019-01-09T17:30:40.958Z,23.88
2019-01-09T17:33:10.559Z,23.86
2019-01-09T17:35:40.278Z,23.86
2019-01-09T17:38:10.036Z,23.87
2019-01-09T17:40:41.164Z,23.90
2019-01-09T17:43:11.046Z,23.98
2019-01-09T17:45:40.754Z,23.97
2019-01-09T17:48:10.469Z,23.92
2019-01-09T17:50:40.483Z,23.96
2019-01-09T17:53:10.109Z,23.95
2019-01-09T17:55:39.803Z,24.00
2019-01-09T17:58:09.318Z,23.90
2019-01-09T18:00:41.379Z,23.95
2019-01-09T18:03:11.265Z,23.94
2019-01-09T18:05:41.753Z,23.92
2019-01-09T18:08:14.582Z,23.88
2019-01-09T18:10:49.947Z,23.89
2019-01-09T18:13:15.816Z,23.93
2019-01-09T18:15:45.381Z,23.90
2019-01-09T18:18:15.116Z,23.88
2019-01-09T18:20:44.688Z,23.92
2019-01-09T18:23:14.619Z,23.86
2019-01-09T18:25:44.310Z,23.85
2019-01-09T18:28:13.929Z,23.83
2019-01-09T18:31:22.752Z,23.90
2019-01-09T18:34:12.875Z,23.94
2019-01-09T18:37:38.767Z,23.90
2019-01-09T18:40:58.737Z,23.93
2019-01-09T18:43:51.380Z,23.86
2019-01-09T18:47:10.658Z,23.99
2019-01-09T18:50:32.938Z,24.05
2019-01-09T18:53:27.538Z,24.02
2019-01-09T18:55:57.263Z,23.99
2019-01-09T18:58:26.896Z,24.01
2019-01-09T19:00:56.498Z,24.01
2019-01-09T19:03:26.163Z,24.06
2019-01-09T19:05:56.118Z,24.09
2019-01-09T19:08:25.969Z,24.07
2019-01-09T19:10:55.559Z,24.06
2019-01-09T19:13:25.312Z,24.04
2019-01-09T19:15:55.079Z,24.03
2019-01-09T19:18:25.041Z,24.04
2019-01-09T19:20:54.717Z,24.05
2019-01-09T19:23:24.402Z,24.03
2019-01-09T19:25:53.997Z,24.00
2019-01-09T19:28:23.696Z,23.99
2019-01-09T19:30:53.325Z,23.99
2019-01-09T19:33:22.923Z,24.03
2019-01-09T19:35:52.619Z,24.05
2019-01-09T19:38:22.311Z,24.01
2019-01-09T19:40:52.057Z,23.98
2019-01-09T19:43:21.744Z,23.99
2019-01-09T19:45:51.389Z,23.97
2019-01-09T19:48:21.057Z,23.98
2019-01-09T19:50:51.134Z,23.95
2019-01-09T19:53:20.795Z,23.98
2019-01-09T19:55:50.452Z,23.96
2019-01-09T19:58:20.213Z,23.94
2019-01-09T20:00:49.749Z,23.95
2019-01-09T20:03:19.433Z,23.93
2019-01-09T20:05:49.146Z,23.90
2019-01-09T20:08:18.916Z,23.92
2019-01-09T20:10:48.720Z,23.95
2019-01-09T20:13:18.223Z,23.95
2019-01-09T20:15:47.894Z,23.91
2019-01-09T20:18:17.515Z,23.91
2019-01-09T20:20:47.309Z,23.88
2019-01-09T20:23:16.943Z,23.88
2019-01-09T20:25:46.647Z,23.91
2019-01-09T20:28:16.365Z,23.91
2019-01-09T20:30:46.202Z,23.86
2019-01-09T20:33:15.898Z,23.85
2019-01-09T20:35:45.619Z,23.86
2019-01-09T20:38:15.220Z,23.85
2019-01-09T20:40:44.862Z,23.80
2019-01-09T20:43:14.422Z,23.79
2019-01-09T20:45:44.183Z,23.81
2019-01-09T20:48:14.052Z,23.83
2019-01-09T20:50:43.834Z,23.79
2019-01-09T20:53:13.560Z,23.81
2019-01-09T20:55:43.410Z,23.79
2019-01-09T20:58:13.207Z,23.80
2019-01-09T21:00:42.941Z,23.83
2019-01-09T21:03:13.579Z,23.86
2019-01-09T21:05:45.526Z,23.83
2019-01-09T21:08:15.185Z,23.83
2019-01-09T21:10:44.796Z,23.83
2019-01-09T21:13:14.769Z,23.81
2019-01-09T21:15:44.583Z,23.78
2019-01-09T21:18:14.239Z,23.75
2019-01-09T21:20:43.880Z,23.76
2019-01-09T21:23:13.697Z,23.79
2019-01-09T21:25:43.297Z,23.84
2019-01-09T21:28:13.059Z,23.84
2019-01-09T21:30:42.618Z,23.83
2019-01-09T21:33:12.671Z,23.82
2019-01-09T21:35:42.359Z,23.83
2019-01-09T21:38:12.035Z,23.84
2019-01-09T21:40:41.659Z,23.83
2019-01-09T21:43:11.358Z,23.84
2019-01-09T21:45:41.060Z,23.88
2019-01-09T21:48:10.777Z,23.84
2019-01-09T21:50:40.481Z,23.83
2019-01-09T21:53:10.239Z,23.88
2019-01-09T21:55:40.006Z,23.86
2019-01-09T21:58:09.638Z,23.85
2019-01-09T22:00:39.394Z,23.83
2019-01-09T22:03:09.194Z,23.83
2019-01-09T22:05:38.956Z,23.82
2019-01-09T22:08:08.575Z,23.81
2019-01-09T22:10:38.513Z,23.81
2019-01-09T22:13:08.854Z,23.86
2019-01-09T22:15:38.507Z,23.79
2019-01-09T22:18:08.225Z,23.77
2019-01-09T22:20:37.858Z,23.82
2019-01-09T22:23:07.652Z,23.80
2019-01-09T22:25:37.288Z,23.79
2019-01-09T22:28:06.964Z,23.73
2019-01-09T22:30:36.708Z,23.83
2019-01-09T22:33:06.483Z,23.82
2019-01-09T22:35:41.364Z,23.80
2019-01-09T22:38:07.859Z,23.80
2019-01-09T22:40:37.595Z,23.76
2019-01-09T22:43:07.380Z,23.76
2019-01-09T22:45:36.997Z,23.73
2019-01-09T22:48:06.701Z,23.71
2019-01-09T22:50:36.332Z,23.78
2019-01-09T22:53:06.051Z,23.83
2019-01-09T22:55:35.647Z,23.79
2019-01-09T22:58:05.344Z,23.83
2019-01-09T23:01:08.596Z,23.77
2019-01-09T23:03:58.201Z,23.79
2019-01-09T23:06:37.378Z,23.82
2019-01-09T23:09:39.352Z,23.83
2019-01-09T23:12:08.911Z,23.70
2019-01-09T23:14:38.316Z,23.61
2019-01-09T23:17:07.821Z,23.58
2019-01-09T23:19:37.336Z,23.58
2019-01-09T23:22:06.805Z,23.65
2019-01-09T23:24:36.471Z,23.75
2019-01-09T23:27:06.043Z,23.76
2019-01-09T23:29:35.525Z,23.80
2019-01-09T23:32:05.057Z,23.87
2019-01-09T23:34:34.570Z,23.94
2019-01-09T23:37:04.030Z,23.96
2019-01-09T23:39:33.588Z,24.00
2019-01-09T23:42:03.088Z,24.02
2019-01-09T23:44:32.687Z,23.98
2019-01-09T23:47:02.196Z,23.97
2019-01-09T23:49:31.703Z,23.98
2019-01-09T23:52:01.276Z,23.96
2019-01-09T23:54:30.817Z,24.05
2019-01-09T23:57:00.341Z,23.96
2019-01-09T23:59:29.889Z,23.99
